Kenora, Ontario

3:27 PM CDT on June 28, 2017 (GMT -0500)
Kenora | | Change Station

Elev 1348 ft 49.78 °N, 94.37 °W | Updated 27 minutes ago

Light Rain
Light Rain
64 °F
Feels Like 64 °F
N
5
Wind Variable Wind from East

Today
High -- | Low -- °F
--% Chance of Precip.
Yesterday
High -- | Low -- °F
Precip. -- in
Pressure 29.64 in
Visibility 12.0 miles
Clouds Mostly Cloudy 2000 ft
Overcast 10000 ft
Dew Point 57 °F
Humidity 77%
Rainfall 0.00 in
Snow Depth Not available.
5:11 AM 9:29 PM
Waxing Crescent, 28% visible
METAR CYQK 282000Z 09004KT 12SM -RA BKN020 OVC100 18/14 A2963 RMK SC6AC2 SLP036 DENSITY ALT 2400FT
Pressure 29.64 in
Visibility 12.0 miles
Clouds Mostly Cloudy 2000 ft
Overcast 10000 ft
Dew Point 57 °F
Humidity 77%
Rainfall 0.00 in
Snow Depth Not available.
5:11 AM 9:29 PM
Waxing Crescent, 28% visible
METAR CYQK 282000Z 09004KT 12SM -RA BKN020 OVC100 18/14 A2963 RMK SC6AC2 SLP036 DENSITY ALT 2400FT

Get Severe Weather Alerts

Thanks for signing up!

Be on the lookout for a verification email in your inbox.

You'll start receiving the daily forecast at 6 AM.

×

10-Day Weather Forecast

Almanac

Astronomy

Jun. 28, 2017 Rise Set
Actual Time
Civil Twilight
Nautical Twilight
Astronomical Twilight
Moon
Length of Visible Light
Length of Day
Tomorrow will be .
, % of the Moon is Illuminated

Today's Extremes

Country Highs Country Lows

Community

WunderPhotos

Category 6

Welcome to Category 6. This is the collective home for Weather Underground's featured writeups by Dr. Jeff Masters (right), Bob Henson (left), Chris Burt, and other regular contributors.

Nearby

Air Quality

  Air Quality AQ Index Pollutant
Not available.

Snow Depth

Station Depth Elevation

Earthquake Activity

City Distance Mag. Time & Date
Minimum magnitude displayed is 2.5.

Coastal Water Temperatures

Place Temperature

Stations

Nearby Weather Stations

Station Location Temp. Windchill Dew Point Humidity Wind Precip. Elev Updated Type
                   

Watches & Warnings

There are currently no watches in effect.